createdAt,value
2018-05-31T00:01:36.602Z,82.70
2018-05-31T00:04:04.359Z,82.70
2018-05-31T00:06:32.119Z,82.80
2018-05-31T00:08:59.906Z,83.00
2018-05-31T00:11:27.653Z,83.20
2018-05-31T00:13:55.366Z,83.50
2018-05-31T00:16:23.123Z,83.00
2018-05-31T00:18:50.908Z,83.20
2018-05-31T00:21:19.393Z,82.90
2018-05-31T00:23:47.898Z,83.10
2018-05-31T00:26:15.659Z,83.10
2018-05-31T00:28:43.407Z,83.80
2018-05-31T00:31:12.396Z,84.40
2018-05-31T00:33:40.901Z,84.10
2018-05-31T00:36:08.622Z,84.20
2018-05-31T00:38:36.499Z,84.30
2018-05-31T00:41:05.013Z,84.30
2018-05-31T00:43:32.736Z,84.20
2018-05-31T00:46:01.272Z,84.20
2018-05-31T00:48:29.017Z,84.20
2018-05-31T00:50:56.900Z,84.10
2018-05-31T00:53:24.682Z,83.90
2018-05-31T00:56:04.337Z,83.90
2018-05-31T00:58:32.835Z,83.50
2018-05-31T01:01:00.597Z,83.50
2018-05-31T01:03:29.505Z,83.70
2018-05-31T01:05:57.229Z,83.70
2018-05-31T01:08:24.969Z,83.50
2018-05-31T01:10:52.736Z,84.20
2018-05-31T01:13:20.467Z,84.50
2018-05-31T01:15:48.229Z,85.20
2018-05-31T01:18:15.949Z,85.10
2018-05-31T01:20:43.812Z,85.10
2018-05-31T01:23:12.339Z,85.30
2018-05-31T01:25:40.070Z,85.30
2018-05-31T01:28:08.610Z,85.40
2018-05-31T01:30:36.370Z,85.40
2018-05-31T01:33:04.138Z,86.20
2018-05-31T01:35:31.893Z,85.50
2018-05-31T01:38:11.680Z,85.20
2018-05-31T01:40:40.191Z,85.10
2018-05-31T01:43:07.940Z,85.10
2018-05-31T01:45:36.459Z,86.20
2018-05-31T01:48:04.240Z,86.20
2018-05-31T01:50:32.473Z,86.40
2018-05-31T01:53:00.205Z,85.90
2018-05-31T01:55:28.718Z,86.10
2018-05-31T01:57:56.640Z,86.00
2018-05-31T02:00:24.381Z,86.40
2018-05-31T02:02:52.117Z,86.60
2018-05-31T02:05:19.888Z,86.50
2018-05-31T02:07:47.662Z,86.10
2018-05-31T02:10:15.402Z,86.10
2018-05-31T02:12:43.122Z,85.40
2018-05-31T02:15:10.892Z,85.30
2018-05-31T02:17:39.406Z,86.50
2018-05-31T02:20:07.174Z,86.50
2018-05-31T02:22:34.904Z,86.50
2018-05-31T02:25:03.510Z,85.80
2018-05-31T02:27:32.056Z,85.70
2018-05-31T02:29:59.804Z,85.60
2018-05-31T02:32:27.529Z,85.30
2018-05-31T02:34:55.401Z,85.10
2018-05-31T02:37:23.136Z,85.10
2018-05-31T02:39:50.958Z,84.60
2018-05-31T02:42:18.746Z,85.20
2018-05-31T02:44:46.499Z,85.50
2018-05-31T02:47:14.721Z,85.10
2018-05-31T02:49:42.492Z,86.00
2018-05-31T02:52:10.215Z,86.10
2018-05-31T02:54:39.080Z,85.70
2018-05-31T02:57:06.806Z,85.70
2018-05-31T02:59:34.548Z,85.70
2018-05-31T03:02:02.329Z,85.50
2018-05-31T03:04:30.040Z,85.50
2018-05-31T03:06:57.803Z,85.30
2018-05-31T03:09:25.515Z,85.40
2018-05-31T03:11:53.500Z,85.70
2018-05-31T03:14:21.211Z,85.70
2018-05-31T03:16:49.759Z,86.20
2018-05-31T03:19:17.525Z,86.10
2018-05-31T03:21:45.286Z,86.40
2018-05-31T03:24:13.058Z,86.40
2018-05-31T03:26:41.281Z,86.20
2018-05-31T03:29:09.020Z,86.30
2018-05-31T03:31:38.040Z,85.90
2018-05-31T03:34:05.800Z,85.90
2018-05-31T03:36:33.592Z,86.30
2018-05-31T03:39:01.370Z,86.40
2018-05-31T03:41:29.101Z,86.10
2018-05-31T03:43:57.267Z,87.20
2018-05-31T03:46:25.008Z,86.80
2018-05-31T03:48:53.530Z,86.30
2018-05-31T03:51:21.326Z,86.30
2018-05-31T03:53:49.836Z,85.30
2018-05-31T03:56:18.326Z,85.00
2018-05-31T03:58:46.196Z,85.00
2018-05-31T04:01:13.919Z,84.50
2018-05-31T04:03:41.684Z,84.00
2018-05-31T04:06:09.477Z,83.70
2018-05-31T04:08:37.200Z,83.70
2018-05-31T04:11:05.062Z,82.80
2018-05-31T04:13:32.782Z,82.40
2018-05-31T04:16:00.496Z,81.80
2018-05-31T04:18:28.239Z,80.40
2018-05-31T04:20:56.868Z,79.50
2018-05-31T04:23:25.386Z,77.70
2018-05-31T04:25:53.173Z,77.70
2018-05-31T04:28:20.924Z,77.20
2018-05-31T04:30:48.637Z,76.40
2018-05-31T04:33:17.259Z,74.10
2018-05-31T04:35:44.965Z,74.10
2018-05-31T04:38:12.702Z,74.00
2018-05-31T04:40:40.928Z,74.10
2018-05-31T04:43:09.403Z,74.10
2018-05-31T04:45:37.905Z,74.10
2018-05-31T04:48:05.656Z,74.10
2018-05-31T04:50:33.411Z,74.10
2018-05-31T04:53:02.064Z,73.00
2018-05-31T04:55:29.813Z,73.00
2018-05-31T04:57:57.589Z,71.50
2018-05-31T05:00:26.208Z,69.80
2018-05-31T05:02:54.724Z,68.60
2018-05-31T05:05:22.477Z,68.50
2018-05-31T05:07:50.264Z,67.20
2018-05-31T05:10:18.035Z,66.00
2018-05-31T05:12:45.761Z,63.50
2018-05-31T05:15:13.573Z,62.10
2018-05-31T05:17:42.403Z,59.90
2018-05-31T05:20:10.289Z,58.90
2018-05-31T05:22:38.727Z,58.90
2018-05-31T05:25:07.226Z,56.70
2018-05-31T05:27:35.739Z,57.20
2018-05-31T05:30:03.527Z,57.20
2018-05-31T05:32:31.311Z,57.50
2018-05-31T05:34:59.801Z,57.10
2018-05-31T05:37:28.323Z,56.70
2018-05-31T05:39:56.571Z,56.70
2018-05-31T05:42:24.311Z,56.70
2018-05-31T05:44:52.809Z,55.90
2018-05-31T05:47:20.564Z,55.70
2018-05-31T05:49:49.056Z,53.80
2018-05-31T05:52:17.017Z,53.80
2018-05-31T05:54:45.531Z,52.30
2018-05-31T05:57:13.292Z,52.30
2018-05-31T05:59:41.052Z,53.80
2018-05-31T06:02:08.955Z,54.70
2018-05-31T06:04:36.660Z,52.50
2018-05-31T06:07:05.140Z,52.80
2018-05-31T06:09:33.663Z,50.80
2018-05-31T06:12:01.372Z,50.80
2018-05-31T06:14:29.100Z,50.60
2018-05-31T06:16:56.860Z,51.40
2018-05-31T06:19:24.628Z,51.90
2018-05-31T06:21:52.335Z,52.50
2018-05-31T06:24:20.812Z,51.50
2018-05-31T06:26:48.617Z,51.50
2018-05-31T06:29:16.345Z,51.50
2018-05-31T06:31:44.063Z,50.50
2018-05-31T06:34:11.851Z,50.60
2018-05-31T06:36:40.752Z,51.60
2018-05-31T06:39:09.216Z,50.40
2018-05-31T06:41:36.946Z,50.40
2018-05-31T06:44:04.708Z,50.00
2018-05-31T06:46:32.454Z,50.00
2018-05-31T06:49:00.165Z,51.20
2018-05-31T06:51:28.116Z,50.40
2018-05-31T06:53:55.820Z,51.50
2018-05-31T06:56:24.295Z,52.60
2018-05-31T06:58:52.795Z,51.90
2018-05-31T07:01:20.577Z,51.80
2018-05-31T07:03:48.272Z,52.50
2018-05-31T07:06:15.963Z,49.40
2018-05-31T07:08:44.562Z,49.20
2018-05-31T07:11:12.332Z,49.20
2018-05-31T07:13:40.048Z,50.90
2018-05-31T07:16:07.780Z,51.30
2018-05-31T07:18:35.484Z,52.00
2018-05-31T07:21:03.989Z,52.40
2018-05-31T07:23:31.688Z,51.60
2018-05-31T07:25:59.463Z,51.70
2018-05-31T07:28:27.225Z,50.50
2018-05-31T07:30:54.940Z,50.80
2018-05-31T07:33:22.775Z,50.40
2018-05-31T07:35:50.466Z,50.00
2018-05-31T07:38:18.184Z,49.60
2018-05-31T07:40:46.375Z,48.50
2018-05-31T07:43:14.840Z,48.40
2018-05-31T07:45:42.595Z,48.40
2018-05-31T07:48:10.320Z,48.60
2018-05-31T07:50:38.130Z,49.30
2018-05-31T07:53:05.919Z,47.70
2018-05-31T07:55:34.396Z,48.70
2018-05-31T07:58:02.883Z,51.10
2018-05-31T08:00:31.499Z,48.70
2018-05-31T08:02:59.293Z,48.60
2018-05-31T08:05:26.995Z,46.20
2018-05-31T08:07:55.503Z,46.70
2018-05-31T08:10:23.260Z,46.70
2018-05-31T08:12:50.946Z,46.90
2018-05-31T08:15:18.649Z,48.80
2018-05-31T08:17:47.190Z,47.90
2018-05-31T08:20:14.905Z,47.90
2018-05-31T08:22:43.375Z,50.10
2018-05-31T08:25:11.989Z,47.40
2018-05-31T08:27:39.696Z,47.30
2018-05-31T08:30:07.424Z,47.80
2018-05-31T08:32:35.157Z,49.30
2018-05-31T08:35:03.679Z,47.40
2018-05-31T08:37:31.392Z,47.40
2018-05-31T08:39:59.915Z,47.50
2018-05-31T08:42:27.625Z,47.40
2018-05-31T08:44:56.226Z,50.30
2018-05-31T08:47:24.725Z,47.70
2018-05-31T08:49:52.443Z,47.60
2018-05-31T08:52:20.187Z,48.80
2018-05-31T08:54:47.876Z,45.10
2018-05-31T08:57:15.709Z,47.20
2018-05-31T08:59:43.416Z,48.10
2018-05-31T09:02:11.918Z,49.70
2018-05-31T09:04:39.861Z,49.60
2018-05-31T09:07:08.406Z,47.70
2018-05-31T09:09:36.103Z,47.70
2018-05-31T09:12:04.659Z,47.20
2018-05-31T09:14:32.367Z,47.30
2018-05-31T09:17:00.508Z,48.20
2018-05-31T09:19:28.204Z,47.60
2018-05-31T09:21:55.957Z,49.50
2018-05-31T09:24:24.435Z,44.60
2018-05-31T09:26:52.167Z,44.70
2018-05-31T09:29:19.881Z,46.80
2018-05-31T09:31:47.614Z,46.40
2018-05-31T09:34:16.087Z,48.00
2018-05-31T09:36:44.915Z,49.00
2018-05-31T09:39:12.640Z,49.00
2018-05-31T09:41:41.109Z,45.80
2018-05-31T09:44:08.842Z,45.90
2018-05-31T09:46:36.588Z,46.80
2018-05-31T09:49:04.332Z,44.60
2018-05-31T09:51:32.074Z,46.60
2018-05-31T09:54:00.555Z,45.50
2018-05-31T09:56:29.050Z,43.10
2018-05-31T09:58:56.775Z,43.10
2018-05-31T10:01:24.970Z,44.30
2018-05-31T10:03:53.479Z,46.40
2018-05-31T10:06:21.201Z,46.50
2018-05-31T10:08:49.738Z,46.40
2018-05-31T10:11:17.624Z,46.30
2018-05-31T10:13:45.492Z,43.70
2018-05-31T10:16:13.867Z,42.40
2018-05-31T10:18:41.734Z,43.70
2018-05-31T10:21:09.614Z,43.90
2018-05-31T10:23:37.464Z,44.70
2018-05-31T10:26:05.174Z,45.80
2018-05-31T10:28:32.872Z,44.90
2018-05-31T10:31:01.373Z,43.20
2018-05-31T10:33:29.132Z,43.20
2018-05-31T10:35:56.833Z,43.60
2018-05-31T10:38:25.330Z,44.10
2018-05-31T10:40:53.023Z,44.10
2018-05-31T10:43:20.903Z,44.20
2018-05-31T10:45:48.765Z,45.50
2018-05-31T10:48:16.632Z,45.90
2018-05-31T10:50:44.505Z,44.80
2018-05-31T10:53:12.363Z,44.40
2018-05-31T10:55:40.227Z,42.60
2018-05-31T10:58:08.095Z,44.20
2018-05-31T11:00:35.962Z,43.50
2018-05-31T11:03:04.032Z,46.70
2018-05-31T11:05:31.897Z,47.90
2018-05-31T11:08:12.635Z,44.40
2018-05-31T11:10:42.010Z,47.00
2018-05-31T11:13:10.481Z,40.60
2018-05-31T11:15:39.099Z,41.80
2018-05-31T11:18:06.813Z,41.80
2018-05-31T11:20:34.521Z,41.60
2018-05-31T11:23:02.253Z,39.60
2018-05-31T11:25:30.725Z,41.40
2018-05-31T11:27:59.262Z,41.10
2018-05-31T11:30:26.964Z,41.00
2018-05-31T11:32:55.517Z,42.70
2018-05-31T11:35:23.249Z,42.80
2018-05-31T11:37:50.975Z,42.80
2018-05-31T11:40:19.488Z,46.10
2018-05-31T11:42:50.277Z,46.20
2018-05-31T11:45:19.486Z,46.20
2018-05-31T11:47:47.242Z,44.60
2018-05-31T11:50:14.981Z,45.40
2018-05-31T11:52:42.884Z,44.30
2018-05-31T11:55:11.350Z,44.40
2018-05-31T11:57:39.832Z,47.00
2018-05-31T12:00:07.606Z,46.90
2018-05-31T12:02:36.079Z,44.90
2018-05-31T12:05:05.148Z,45.00
2018-05-31T12:07:33.680Z,41.40
2018-05-31T12:10:02.260Z,41.60
2018-05-31T12:12:31.212Z,47.40
2018-05-31T12:14:59.003Z,45.40
2018-05-31T12:17:27.576Z,41.30
2018-05-31T12:19:57.494Z,42.40
2018-05-31T12:22:25.958Z,45.80
2018-05-31T12:24:53.699Z,45.80
2018-05-31T12:27:21.571Z,45.20
2018-05-31T12:29:49.416Z,47.70
2018-05-31T12:32:17.213Z,46.30
2018-05-31T12:34:45.888Z,49.90
2018-05-31T12:37:13.907Z,49.80
2018-05-31T12:39:41.717Z,49.20
2018-05-31T12:42:10.744Z,52.60
2018-05-31T12:44:39.277Z,52.90
2018-05-31T12:47:06.969Z,52.90
2018-05-31T12:49:34.667Z,53.80
2018-05-31T12:52:02.732Z,55.40
2018-05-31T12:54:30.442Z,57.00
2018-05-31T12:56:58.151Z,55.40
2018-05-31T12:59:26.641Z,59.50
2018-05-31T13:01:55.052Z,59.50
2018-05-31T13:04:22.764Z,61.60
2018-05-31T13:06:51.241Z,59.90
2018-05-31T13:09:19.870Z,60.70
2018-05-31T13:11:47.647Z,60.70
2018-05-31T13:14:15.363Z,67.90
2018-05-31T13:16:43.885Z,68.00
2018-05-31T13:19:11.583Z,67.80
2018-05-31T13:21:40.112Z,67.40
2018-05-31T13:24:08.531Z,67.40
2018-05-31T13:26:36.244Z,67.30
2018-05-31T13:29:03.956Z,66.10
2018-05-31T13:31:31.709Z,65.00
2018-05-31T13:33:59.542Z,64.30
2018-05-31T13:36:27.235Z,63.80
2018-05-31T13:38:54.937Z,64.30
2018-05-31T13:41:23.462Z,64.70
2018-05-31T13:43:51.179Z,64.70
2018-05-31T13:46:20.055Z,66.00
2018-05-31T13:48:48.520Z,66.20
2018-05-31T13:51:16.207Z,66.20
2018-05-31T13:53:44.713Z,68.70
2018-05-31T13:56:12.419Z,68.70
2018-05-31T13:58:40.206Z,69.20
2018-05-31T14:01:09.475Z,68.30
2018-05-31T14:03:37.174Z,68.30
2018-05-31T14:06:06.578Z,69.00
2018-05-31T14:08:35.329Z,69.60
2018-05-31T14:11:03.194Z,69.50
2018-05-31T14:13:31.164Z,69.70
2018-05-31T14:15:59.025Z,70.30
2018-05-31T14:18:27.259Z,70.20
2018-05-31T14:20:54.960Z,71.00
2018-05-31T14:23:22.678Z,70.80
2018-05-31T14:25:50.425Z,70.30
2018-05-31T14:28:18.891Z,70.20
2018-05-31T14:30:47.725Z,70.00
2018-05-31T14:33:15.453Z,70.00
2018-05-31T14:35:43.951Z,70.40
2018-05-31T14:38:11.686Z,70.40
2018-05-31T14:40:40.175Z,71.00
2018-05-31T14:43:08.835Z,69.90
2018-05-31T14:45:36.550Z,70.60
2018-05-31T14:48:04.304Z,69.90
2018-05-31T14:50:32.057Z,70.40
2018-05-31T14:53:00.536Z,70.50
2018-05-31T14:55:29.513Z,70.60
2018-05-31T14:57:57.985Z,70.70
2018-05-31T15:00:25.687Z,70.70
2018-05-31T15:02:53.432Z,71.90
2018-05-31T15:05:21.905Z,72.70
2018-05-31T15:07:49.615Z,72.70
2018-05-31T15:10:18.032Z,72.50
2018-05-31T15:12:45.745Z,73.80
2018-05-31T15:15:13.455Z,74.70
2018-05-31T15:17:41.196Z,76.00
2018-05-31T15:20:08.939Z,79.20
2018-05-31T15:22:36.656Z,80.50
2018-05-31T15:25:05.239Z,80.20
2018-05-31T15:27:33.726Z,82.10
2018-05-31T15:30:02.266Z,82.30
2018-05-31T15:32:30.008Z,82.20
2018-05-31T15:34:57.880Z,80.80
2018-05-31T15:37:25.592Z,80.90
2018-05-31T15:39:54.064Z,83.20
2018-05-31T15:42:21.909Z,83.20
2018-05-31T15:44:49.651Z,83.70
2018-05-31T15:47:17.368Z,83.70
2018-05-31T15:49:45.864Z,83.80
2018-05-31T15:52:13.569Z,83.80
2018-05-31T15:54:41.348Z,83.00
2018-05-31T15:57:09.068Z,82.30
2018-05-31T15:59:36.784Z,82.40
2018-05-31T16:02:05.327Z,83.20
2018-05-31T16:04:33.059Z,82.50
2018-05-31T16:07:00.839Z,83.20
2018-05-31T16:09:28.547Z,84.90
2018-05-31T16:11:56.259Z,84.70
2018-05-31T16:14:24.491Z,85.70
2018-05-31T16:16:52.976Z,86.60
2018-05-31T16:19:21.444Z,87.00
2018-05-31T16:21:49.203Z,87.00
2018-05-31T16:24:17.012Z,88.10
2018-05-31T16:26:44.766Z,88.20
2018-05-31T16:29:12.480Z,87.50
2018-05-31T16:31:40.247Z,87.50
2018-05-31T16:34:07.956Z,87.50
2018-05-31T16:36:36.104Z,86.80
2018-05-31T16:39:04.683Z,86.70
2018-05-31T16:41:33.181Z,87.40
2018-05-31T16:44:01.712Z,88.40
2018-05-31T16:46:29.426Z,88.20
2018-05-31T16:48:57.986Z,88.80
2018-05-31T16:51:25.713Z,88.70
2018-05-31T16:53:53.877Z,88.70
2018-05-31T16:56:21.602Z,88.50
2018-05-31T16:58:50.074Z,88.10
2018-05-31T17:01:18.690Z,88.10
2018-05-31T17:03:46.406Z,88.20
2018-05-31T17:06:14.112Z,88.30
2018-05-31T17:08:41.883Z,89.60
2018-05-31T17:11:09.584Z,88.60
2018-05-31T17:13:37.369Z,88.50
2018-05-31T17:16:06.704Z,89.50
2018-05-31T17:18:41.174Z,89.40
2018-05-31T17:21:10.044Z,87.50
2018-05-31T17:23:37.752Z,87.40
2018-05-31T17:26:06.257Z,87.30
2018-05-31T17:28:34.014Z,87.40
2018-05-31T17:31:01.725Z,88.50
2018-05-31T17:33:29.920Z,87.00
2018-05-31T17:35:58.640Z,87.80
2018-05-31T17:38:27.486Z,87.80
2018-05-31T17:40:55.333Z,87.10
2018-05-31T17:43:23.548Z,86.60
2018-05-31T17:45:52.166Z,86.20
2018-05-31T17:48:20.770Z,86.20
2018-05-31T17:50:48.675Z,85.70
2018-05-31T17:53:18.040Z,84.50
2018-05-31T17:55:45.867Z,84.50
2018-05-31T17:58:15.341Z,85.10
2018-05-31T18:00:43.399Z,85.10
2018-05-31T18:03:11.483Z,84.70
2018-05-31T18:05:40.443Z,85.10
2018-05-31T18:08:08.723Z,85.10
2018-05-31T18:10:37.810Z,85.30
2018-05-31T18:13:05.631Z,85.30
2018-05-31T18:15:33.498Z,85.00
2018-05-31T18:18:01.201Z,84.70
2018-05-31T18:20:28.936Z,84.20
2018-05-31T18:22:56.673Z,84.90
2018-05-31T18:25:25.183Z,86.00
2018-05-31T18:27:52.972Z,86.00
2018-05-31T18:30:20.735Z,86.80
2018-05-31T18:32:48.445Z,86.60
2018-05-31T18:35:21.895Z,87.50
2018-05-31T18:37:49.622Z,87.70
2018-05-31T18:40:17.359Z,88.00
2018-05-31T18:42:53.939Z,88.00
2018-05-31T18:45:22.060Z,87.80
2018-05-31T18:47:50.647Z,87.70
2018-05-31T18:50:18.487Z,87.40
2018-05-31T18:52:47.091Z,87.00
2018-05-31T18:55:14.904Z,88.40
2018-05-31T18:57:42.632Z,88.30
2018-05-31T19:00:10.408Z,88.20
2018-05-31T19:02:38.905Z,87.60
2018-05-31T19:05:06.805Z,87.60
2018-05-31T19:07:34.517Z,87.70
2018-05-31T19:10:04.003Z,87.90
2018-05-31T19:12:37.449Z,87.90
2018-05-31T19:15:05.197Z,87.90
2018-05-31T19:17:33.720Z,87.80
2018-05-31T19:20:01.525Z,88.50
2018-05-31T19:22:29.446Z,87.80
2018-05-31T19:25:02.786Z,87.50
2018-05-31T19:27:32.480Z,88.40
2018-05-31T19:30:06.572Z,88.30
2018-05-31T19:32:34.390Z,87.90
2018-05-31T19:35:03.540Z,87.70
2018-05-31T19:37:33.046Z,87.60
2018-05-31T19:40:01.344Z,87.60
2018-05-31T19:42:34.745Z,87.30
2018-05-31T19:45:03.259Z,87.80
2018-05-31T19:47:30.961Z,87.80
2018-05-31T19:49:58.884Z,87.90
2018-05-31T19:52:32.253Z,88.30
2018-05-31T19:55:00.807Z,87.20
2018-05-31T19:57:28.564Z,87.20
2018-05-31T20:00:02.211Z,87.00
2018-05-31T20:02:36.900Z,87.40
2018-05-31T20:05:05.226Z,87.40
2018-05-31T20:07:33.576Z,87.20
2018-05-31T20:10:01.413Z,87.30
2018-05-31T20:12:29.286Z,87.20
2018-05-31T20:14:57.005Z,87.70
2018-05-31T20:17:29.544Z,87.50
2018-05-31T20:19:58.045Z,87.60
2018-05-31T20:22:25.821Z,87.60
2018-05-31T20:24:53.531Z,87.50
2018-05-31T20:27:21.243Z,87.80
2018-05-31T20:29:48.986Z,87.40
2018-05-31T20:32:17.492Z,88.10
2018-05-31T20:34:45.200Z,88.20
2018-05-31T20:37:13.397Z,88.10
2018-05-31T20:39:41.901Z,87.70
2018-05-31T20:42:09.607Z,87.50
2018-05-31T20:44:37.763Z,87.30
2018-05-31T20:47:05.463Z,87.30
2018-05-31T20:49:33.169Z,87.50
2018-05-31T20:52:00.916Z,87.50
2018-05-31T20:54:28.625Z,87.30
2018-05-31T20:56:56.467Z,87.20
2018-05-31T20:59:24.164Z,87.60
2018-05-31T21:01:51.858Z,87.70
2018-05-31T21:04:20.366Z,88.70
2018-05-31T21:06:48.102Z,88.70
2018-05-31T21:09:16.605Z,88.10
2018-05-31T21:11:44.445Z,88.10
2018-05-31T21:14:12.927Z,88.20
2018-05-31T21:16:41.405Z,87.70
2018-05-31T21:19:09.898Z,87.40
2018-05-31T21:21:37.715Z,87.30
2018-05-31T21:24:05.807Z,87.40
2018-05-31T21:26:33.517Z,87.40
2018-05-31T21:29:01.241Z,87.40
2018-05-31T21:31:29.761Z,86.70
2018-05-31T21:33:57.472Z,86.70
2018-05-31T21:36:25.209Z,86.80
2018-05-31T21:38:52.922Z,87.10
2018-05-31T21:41:20.696Z,87.70
2018-05-31T21:43:48.407Z,87.20
2018-05-31T21:46:16.115Z,86.70
2018-05-31T21:48:43.900Z,87.10
2018-05-31T21:51:11.628Z,88.20
2018-05-31T21:53:40.104Z,89.50
2018-05-31T21:56:08.711Z,89.20
2018-05-31T21:58:36.404Z,89.10
2018-05-31T22:01:04.172Z,88.60
2018-05-31T22:03:31.915Z,87.90
2018-05-31T22:05:59.694Z,87.90
2018-05-31T22:08:27.400Z,88.00
2018-05-31T22:10:55.870Z,87.60
2018-05-31T22:13:24.362Z,87.70
2018-05-31T22:15:52.836Z,87.80
2018-05-31T22:18:21.377Z,87.70
2018-05-31T22:20:49.072Z,87.70
2018-05-31T22:23:17.544Z,87.90
2018-05-31T22:25:45.286Z,87.80
2018-05-31T22:28:12.989Z,87.70
2018-05-31T22:30:41.471Z,88.10
2018-05-31T22:33:10.065Z,88.40
2018-05-31T22:35:38.527Z,87.80
2018-05-31T22:38:07.019Z,87.80
2018-05-31T22:40:35.519Z,87.80
2018-05-31T22:43:03.233Z,87.80
2018-05-31T22:45:30.984Z,87.50
2018-05-31T22:47:58.747Z,88.20
2018-05-31T22:50:26.569Z,87.40
2018-05-31T22:52:54.267Z,87.60
2018-05-31T22:55:22.000Z,88.00
2018-05-31T22:57:49.867Z,88.00
2018-05-31T23:00:17.669Z,88.10
2018-05-31T23:02:45.389Z,88.20
2018-05-31T23:05:13.140Z,88.70
2018-05-31T23:07:40.889Z,89.10
2018-05-31T23:10:09.352Z,89.20
2018-05-31T23:12:37.871Z,88.70
2018-05-31T23:15:05.599Z,88.60
2018-05-31T23:17:34.060Z,88.90
2018-05-31T23:20:01.829Z,88.90
2018-05-31T23:22:29.539Z,88.90
2018-05-31T23:24:57.275Z,88.80
2018-05-31T23:27:25.748Z,88.70
2018-05-31T23:29:54.659Z,88.80
2018-05-31T23:32:22.355Z,88.80
2018-05-31T23:34:50.050Z,88.90
2018-05-31T23:37:17.807Z,88.80
2018-05-31T23:39:45.503Z,88.60
2018-05-31T23:42:13.207Z,88.70
2018-05-31T23:44:41.414Z,88.90
2018-05-31T23:47:09.887Z,88.60
2018-05-31T23:49:37.629Z,88.50
2018-05-31T23:52:05.515Z,88.90
2018-05-31T23:54:33.223Z,89.00
2018-05-31T23:57:00.928Z,89.20
2018-05-31T23:59:28.664Z,88.70
